sensor_id;sensor_type;location;lat;lon;timestamp;temperature;humidity
11387;DHT22;5748;53.102;8.456;2022-10-19T00:01:57;14.70;61.10
11387;DHT22;5748;53.102;8.456;2022-10-19T00:04:24;14.80;61.20
11387;DHT22;5748;53.102;8.456;2022-10-19T00:06:53;14.80;61.10
11387;DHT22;5748;53.102;8.456;2022-10-19T00:09:22;14.90;61.20
11387;DHT22;5748;53.102;8.456;2022-10-19T00:11:50;15.70;62.10
11387;DHT22;5748;53.102;8.456;2022-10-19T00:14:19;15.30;61.70
11387;DHT22;5748;53.102;8.456;2022-10-19T00:16:49;15.10;61.40
11387;DHT22;5748;53.102;8.456;2022-10-19T00:19:21;15.20;61.50
11387;DHT22;5748;53.102;8.456;2022-10-19T00:21:50;15.20;61.50
11387;DHT22;5748;53.102;8.456;2022-10-19T00:24:18;15.40;61.40
11387;DHT22;5748;53.102;8.456;2022-10-19T00:26:46;15.50;61.60
11387;DHT22;5748;53.102;8.456;2022-10-19T00:29:13;15.40;61.30
11387;DHT22;5748;53.102;8.456;2022-10-19T00:31:41;15.50;61.50
11387;DHT22;5748;53.102;8.456;2022-10-19T00:34:08;15.40;61.30
11387;DHT22;5748;53.102;8.456;2022-10-19T00:36:39;15.60;61.60
11387;DHT22;5748;53.102;8.456;2022-10-19T00:39:09;15.60;61.60
11387;DHT22;5748;53.102;8.456;2022-10-19T00:41:38;15.60;61.40
11387;DHT22;5748;53.102;8.456;2022-10-19T00:47:25;15.60;61.80
11387;DHT22;5748;53.102;8.456;2022-10-19T00:49:54;15.70;61.20
11387;DHT22;5748;53.102;8.456;2022-10-19T00:52:25;15.70;61.00
11387;DHT22;5748;53.102;8.456;2022-10-19T00:54:54;15.70;61.30
11387;DHT22;5748;53.102;8.456;2022-10-19T00:57:27;15.80;61.40
11387;DHT22;5748;53.102;8.456;2022-10-19T00:59:55;15.90;61.50
11387;DHT22;5748;53.102;8.456;2022-10-19T01:02:22;15.90;61.40
11387;DHT22;5748;53.102;8.456;2022-10-19T01:04:51;15.70;61.20
11387;DHT22;5748;53.102;8.456;2022-10-19T01:07:18;15.80;61.40
11387;DHT22;5748;53.102;8.456;2022-10-19T01:09:47;15.80;61.40
11387;DHT22;5748;53.102;8.456;2022-10-19T01:12:38;15.80;61.40
11387;DHT22;5748;53.102;8.456;2022-10-19T01:15:21;15.80;61.90
11387;DHT22;5748;53.102;8.456;2022-10-19T01:17:59;15.90;61.70
11387;DHT22;5748;53.102;8.456;2022-10-19T01:24:28;15.90;62.00
11387;DHT22;5748;53.102;8.456;2022-10-19T01:30:18;15.90;61.70
11387;DHT22;5748;53.102;8.456;2022-10-19T01:33:07;15.90;61.30
11387;DHT22;5748;53.102;8.456;2022-10-19T01:35:55;15.90;61.50
11387;DHT22;5748;53.102;8.456;2022-10-19T01:38:33;16.00;61.40
11387;DHT22;5748;53.102;8.456;2022-10-19T01:41:10;16.00;61.40
11387;DHT22;5748;53.102;8.456;2022-10-19T01:43:44;16.00;61.50
11387;DHT22;5748;53.102;8.456;2022-10-19T01:46:18;16.00;61.30
11387;DHT22;5748;53.102;8.456;2022-10-19T01:48:53;16.00;61.50
11387;DHT22;5748;53.102;8.456;2022-10-19T01:51:25;16.00;61.50
11387;DHT22;5748;53.102;8.456;2022-10-19T01:53:57;15.90;61.30
11387;DHT22;5748;53.102;8.456;2022-10-19T01:56:27;16.00;61.30
11387;DHT22;5748;53.102;8.456;2022-10-19T01:58:57;16.00;61.30
11387;DHT22;5748;53.102;8.456;2022-10-19T02:01:30;16.00;61.30
11387;DHT22;5748;53.102;8.456;2022-10-19T02:04:00;16.00;61.30
11387;DHT22;5748;53.102;8.456;2022-10-19T02:06:28;15.90;61.10
11387;DHT22;5748;53.102;8.456;2022-10-19T02:08:56;15.90;61.00
11387;DHT22;5748;53.102;8.456;2022-10-19T02:11:23;16.00;61.10
11387;DHT22;5748;53.102;8.456;2022-10-19T02:13:55;16.00;61.20
11387;DHT22;5748;53.102;8.456;2022-10-19T02:16:31;16.00;61.30
11387;DHT22;5748;53.102;8.456;2022-10-19T02:19:01;16.00;61.30
11387;DHT22;5748;53.102;8.456;2022-10-19T02:21:30;16.00;61.40
11387;DHT22;5748;53.102;8.456;2022-10-19T02:23:58;15.90;61.20
11387;DHT22;5748;53.102;8.456;2022-10-19T02:26:26;16.00;61.40
11387;DHT22;5748;53.102;8.456;2022-10-19T02:28:54;16.00;61.40
11387;DHT22;5748;53.102;8.456;2022-10-19T02:31:22;16.00;61.50
11387;DHT22;5748;53.102;8.456;2022-10-19T02:33:52;16.00;61.50
11387;DHT22;5748;53.102;8.456;2022-10-19T02:36:19;16.00;61.60
11387;DHT22;5748;53.102;8.456;2022-10-19T02:38:47;16.00;61.50
11387;DHT22;5748;53.102;8.456;2022-10-19T02:41:16;16.10;61.50
11387;DHT22;5748;53.102;8.456;2022-10-19T02:43:48;16.00;61.50
11387;DHT22;5748;53.102;8.456;2022-10-19T02:46:20;16.10;61.70
11387;DHT22;5748;53.102;8.456;2022-10-19T02:48:52;16.20;61.70
11387;DHT22;5748;53.102;8.456;2022-10-19T02:51:27;16.10;61.70
11387;DHT22;5748;53.102;8.456;2022-10-19T02:53:56;16.10;61.80
11387;DHT22;5748;53.102;8.456;2022-10-19T02:56:23;16.10;61.50
11387;DHT22;5748;53.102;8.456;2022-10-19T02:58:50;16.00;61.40
11387;DHT22;5748;53.102;8.456;2022-10-19T03:01:17;16.10;61.40
11387;DHT22;5748;53.102;8.456;2022-10-19T03:03:44;16.10;61.40
11387;DHT22;5748;53.102;8.456;2022-10-19T03:06:13;16.20;61.60
11387;DHT22;5748;53.102;8.456;2022-10-19T03:08:40;16.10;61.30
11387;DHT22;5748;53.102;8.456;2022-10-19T03:11:07;16.10;61.30
11387;DHT22;5748;53.102;8.456;2022-10-19T03:13:34;16.10;61.40
11387;DHT22;5748;53.102;8.456;2022-10-19T03:16:09;16.10;62.10
11387;DHT22;5748;53.102;8.456;2022-10-19T03:18:37;16.10;61.70
11387;DHT22;5748;53.102;8.456;2022-10-19T03:21:08;16.10;61.50
11387;DHT22;5748;53.102;8.456;2022-10-19T03:23:38;16.10;61.60
11387;DHT22;5748;53.102;8.456;2022-10-19T03:26:06;16.10;61.60
11387;DHT22;5748;53.102;8.456;2022-10-19T03:28:34;16.10;61.60
11387;DHT22;5748;53.102;8.456;2022-10-19T03:31:01;16.10;61.40
11387;DHT22;5748;53.102;8.456;2022-10-19T03:33:28;16.10;61.60
11387;DHT22;5748;53.102;8.456;2022-10-19T03:36:15;16.10;61.40
11387;DHT22;5748;53.102;8.456;2022-10-19T03:38:51;16.00;62.00
11387;DHT22;5748;53.102;8.456;2022-10-19T03:41:18;16.00;61.60
11387;DHT22;5748;53.102;8.456;2022-10-19T03:43:46;16.10;61.70
11387;DHT22;5748;53.102;8.456;2022-10-19T03:46:13;16.10;61.60
11387;DHT22;5748;53.102;8.456;2022-10-19T03:48:41;16.10;61.60
11387;DHT22;5748;53.102;8.456;2022-10-19T03:51:10;16.10;61.70
11387;DHT22;5748;53.102;8.456;2022-10-19T03:53:40;16.10;61.70
11387;DHT22;5748;53.102;8.456;2022-10-19T03:56:11;16.10;61.70
11387;DHT22;5748;53.102;8.456;2022-10-19T03:58:41;16.10;61.80
11387;DHT22;5748;53.102;8.456;2022-10-19T04:01:11;16.10;61.80
11387;DHT22;5748;53.102;8.456;2022-10-19T04:03:40;16.10;61.80
11387;DHT22;5748;53.102;8.456;2022-10-19T04:06:09;16.20;61.80
11387;DHT22;5748;53.102;8.456;2022-10-19T04:08:37;16.10;61.70
11387;DHT22;5748;53.102;8.456;2022-10-19T04:11:07;16.00;61.60
11387;DHT22;5748;53.102;8.456;2022-10-19T04:13:37;16.10;61.70
11387;DHT22;5748;53.102;8.456;2022-10-19T04:16:05;16.10;61.70
11387;DHT22;5748;53.102;8.456;2022-10-19T04:18:33;16.10;61.70
11387;DHT22;5748;53.102;8.456;2022-10-19T04:21:02;16.20;61.60
11387;DHT22;5748;53.102;8.456;2022-10-19T04:23:33;16.10;61.80
11387;DHT22;5748;53.102;8.456;2022-10-19T04:26:02;16.10;61.80
11387;DHT22;5748;53.102;8.456;2022-10-19T04:28:33;16.00;61.70
11387;DHT22;5748;53.102;8.456;2022-10-19T04:31:01;16.10;61.90
11387;DHT22;5748;53.102;8.456;2022-10-19T04:33:28;16.00;61.80
11387;DHT22;5748;53.102;8.456;2022-10-19T04:35:57;16.00;61.60
11387;DHT22;5748;53.102;8.456;2022-10-19T04:38:24;16.00;61.70
11387;DHT22;5748;53.102;8.456;2022-10-19T04:40:52;16.00;61.80
11387;DHT22;5748;53.102;8.456;2022-10-19T04:43:19;16.10;61.80
11387;DHT22;5748;53.102;8.456;2022-10-19T04:45:47;16.00;61.70
11387;DHT22;5748;53.102;8.456;2022-10-19T04:48:14;16.20;62.70
11387;DHT22;5748;53.102;8.456;2022-10-19T04:50:42;16.00;61.70
11387;DHT22;5748;53.102;8.456;2022-10-19T04:53:09;16.00;61.70
11387;DHT22;5748;53.102;8.456;2022-10-19T04:55:39;16.20;61.80
11387;DHT22;5748;53.102;8.456;2022-10-19T04:58:06;15.90;62.40
11387;DHT22;5748;53.102;8.456;2022-10-19T05:00:36;16.00;61.70
11387;DHT22;5748;53.102;8.456;2022-10-19T05:03:04;15.90;61.70
11387;DHT22;5748;53.102;8.456;2022-10-19T05:05:32;16.00;61.60
11387;DHT22;5748;53.102;8.456;2022-10-19T05:07:59;16.00;61.70
11387;DHT22;5748;53.102;8.456;2022-10-19T05:10:26;15.90;61.70
11387;DHT22;5748;53.102;8.456;2022-10-19T05:12:53;15.90;61.60
11387;DHT22;5748;53.102;8.456;2022-10-19T05:15:23;15.90;61.70
11387;DHT22;5748;53.102;8.456;2022-10-19T05:17:50;15.90;61.60
11387;DHT22;5748;53.102;8.456;2022-10-19T05:20:18;16.00;61.60
11387;DHT22;5748;53.102;8.456;2022-10-19T05:22:45;15.90;61.60
11387;DHT22;5748;53.102;8.456;2022-10-19T05:25:12;15.90;61.80
11387;DHT22;5748;53.102;8.456;2022-10-19T05:27:40;15.90;61.90
11387;DHT22;5748;53.102;8.456;2022-10-19T05:30:08;15.90;61.90
11387;DHT22;5748;53.102;8.456;2022-10-19T05:32:35;15.90;62.00
11387;DHT22;5748;53.102;8.456;2022-10-19T05:35:03;15.80;61.80
11387;DHT22;5748;53.102;8.456;2022-10-19T05:37:32;15.90;62.00
11387;DHT22;5748;53.102;8.456;2022-10-19T05:39:59;15.90;62.00
11387;DHT22;5748;53.102;8.456;2022-10-19T05:42:26;15.90;62.00
11387;DHT22;5748;53.102;8.456;2022-10-19T05:44:53;15.90;62.00
11387;DHT22;5748;53.102;8.456;2022-10-19T05:47:20;15.90;62.00
11387;DHT22;5748;53.102;8.456;2022-10-19T05:49:47;15.90;62.00
11387;DHT22;5748;53.102;8.456;2022-10-19T05:52:14;15.80;61.90
11387;DHT22;5748;53.102;8.456;2022-10-19T05:54:43;15.90;62.00
11387;DHT22;5748;53.102;8.456;2022-10-19T05:57:10;15.90;62.10
11387;DHT22;5748;53.102;8.456;2022-10-19T05:59:38;15.90;62.00
11387;DHT22;5748;53.102;8.456;2022-10-19T06:02:05;15.90;62.00
11387;DHT22;5748;53.102;8.456;2022-10-19T06:04:32;15.90;62.00
11387;DHT22;5748;53.102;8.456;2022-10-19T06:07:00;15.90;62.00
11387;DHT22;5748;53.102;8.456;2022-10-19T06:09:27;15.90;62.00
11387;DHT22;5748;53.102;8.456;2022-10-19T06:12:02;16.10;62.10
11387;DHT22;5748;53.102;8.456;2022-10-19T06:14:30;15.90;62.10
11387;DHT22;5748;53.102;8.456;2022-10-19T06:16:57;15.90;62.10
11387;DHT22;5748;53.102;8.456;2022-10-19T06:19:24;15.90;62.10
11387;DHT22;5748;53.102;8.456;2022-10-19T06:21:51;15.90;62.20
11387;DHT22;5748;53.102;8.456;2022-10-19T06:24:18;15.90;62.20
11387;DHT22;5748;53.102;8.456;2022-10-19T06:26:45;15.80;62.10
11387;DHT22;5748;53.102;8.456;2022-10-19T06:29:14;15.90;62.30
11387;DHT22;5748;53.102;8.456;2022-10-19T06:31:41;15.90;62.30
11387;DHT22;5748;53.102;8.456;2022-10-19T06:34:10;15.90;62.20
11387;DHT22;5748;53.102;8.456;2022-10-19T06:36:37;15.90;62.30
11387;DHT22;5748;53.102;8.456;2022-10-19T06:39:04;15.90;62.40
11387;DHT22;5748;53.102;8.456;2022-10-19T06:41:31;15.90;62.40
11387;DHT22;5748;53.102;8.456;2022-10-19T06:43:58;15.90;62.40
11387;DHT22;5748;53.102;8.456;2022-10-19T06:46:29;15.90;62.40
11387;DHT22;5748;53.102;8.456;2022-10-19T06:48:58;16.00;62.60
11387;DHT22;5748;53.102;8.456;2022-10-19T06:51:28;16.00;62.60
11387;DHT22;5748;53.102;8.456;2022-10-19T06:53:56;16.00;62.50
11387;DHT22;5748;53.102;8.456;2022-10-19T06:56:24;16.00;62.40
11387;DHT22;5748;53.102;8.456;2022-10-19T06:58:53;16.00;62.50
11387;DHT22;5748;53.102;8.456;2022-10-19T07:01:21;16.00;62.50
11387;DHT22;5748;53.102;8.456;2022-10-19T07:03:55;16.00;62.50
11387;DHT22;5748;53.102;8.456;2022-10-19T07:06:22;16.00;62.70
11387;DHT22;5748;53.102;8.456;2022-10-19T07:08:53;16.00;62.60
11387;DHT22;5748;53.102;8.456;2022-10-19T07:11:20;16.00;62.50
11387;DHT22;5748;53.102;8.456;2022-10-19T07:13:47;16.00;62.60
11387;DHT22;5748;53.102;8.456;2022-10-19T07:16:16;16.10;62.80
11387;DHT22;5748;53.102;8.456;2022-10-19T07:18:44;16.20;62.90
11387;DHT22;5748;53.102;8.456;2022-10-19T07:21:14;16.10;62.70
11387;DHT22;5748;53.102;8.456;2022-10-19T07:23:45;16.10;62.70
11387;DHT22;5748;53.102;8.456;2022-10-19T07:26:14;16.20;62.90
11387;DHT22;5748;53.102;8.456;2022-10-19T07:28:43;16.20;62.80
11387;DHT22;5748;53.102;8.456;2022-10-19T07:31:13;16.20;63.20
11387;DHT22;5748;53.102;8.456;2022-10-19T07:33:43;16.20;62.70
11387;DHT22;5748;53.102;8.456;2022-10-19T07:36:11;16.30;62.60
11387;DHT22;5748;53.102;8.456;2022-10-19T07:38:39;16.30;62.50
11387;DHT22;5748;53.102;8.456;2022-10-19T07:41:08;16.30;62.50
11387;DHT22;5748;53.102;8.456;2022-10-19T07:43:37;16.40;62.60
11387;DHT22;5748;53.102;8.456;2022-10-19T07:46:06;16.80;63.00
11387;DHT22;5748;53.102;8.456;2022-10-19T07:48:35;16.40;62.70
11387;DHT22;5748;53.102;8.456;2022-10-19T07:51:04;16.50;62.70
11387;DHT22;5748;53.102;8.456;2022-10-19T07:53:34;16.50;62.70
11387;DHT22;5748;53.102;8.456;2022-10-19T07:56:03;16.60;62.60
11387;DHT22;5748;53.102;8.456;2022-10-19T07:58:30;16.70;63.50
11387;DHT22;5748;53.102;8.456;2022-10-19T08:00:59;16.80;62.80
11387;DHT22;5748;53.102;8.456;2022-10-19T08:03:27;16.80;62.80
11387;DHT22;5748;53.102;8.456;2022-10-19T08:05:58;16.90;62.70
11387;DHT22;5748;53.102;8.456;2022-10-19T08:08:26;17.00;62.70
11387;DHT22;5748;53.102;8.456;2022-10-19T08:10:55;17.10;62.70
11387;DHT22;5748;53.102;8.456;2022-10-19T08:13:23;17.10;62.50
11387;DHT22;5748;53.102;8.456;2022-10-19T08:15:50;17.20;62.50
11387;DHT22;5748;53.102;8.456;2022-10-19T08:18:17;17.20;62.40
11387;DHT22;5748;53.102;8.456;2022-10-19T08:20:46;17.30;62.40
11387;DHT22;5748;53.102;8.456;2022-10-19T08:23:14;17.30;62.20
11387;DHT22;5748;53.102;8.456;2022-10-19T08:25:41;17.40;62.20
11387;DHT22;5748;53.102;8.456;2022-10-19T08:28:10;17.40;62.20
11387;DHT22;5748;53.102;8.456;2022-10-19T08:30:38;17.40;62.10
11387;DHT22;5748;53.102;8.456;2022-10-19T08:33:05;17.60;62.20
11387;DHT22;5748;53.102;8.456;2022-10-19T08:35:33;17.50;62.10
11387;DHT22;5748;53.102;8.456;2022-10-19T08:38:00;17.60;62.00
11387;DHT22;5748;53.102;8.456;2022-10-19T08:40:29;17.60;61.70
11387;DHT22;5748;53.102;8.456;2022-10-19T08:43:00;17.70;61.70
11387;DHT22;5748;53.102;8.456;2022-10-19T08:45:38;17.70;61.70
11387;DHT22;5748;53.102;8.456;2022-10-19T08:48:24;17.60;61.40
11387;DHT22;5748;53.102;8.456;2022-10-19T08:50:53;17.70;61.50
11387;DHT22;5748;53.102;8.456;2022-10-19T08:53:30;17.70;61.80
11387;DHT22;5748;53.102;8.456;2022-10-19T08:56:14;17.80;61.70
11387;DHT22;5748;53.102;8.456;2022-10-19T08:58:54;17.80;61.10
11387;DHT22;5748;53.102;8.456;2022-10-19T09:01:35;17.90;61.30
11387;DHT22;5748;53.102;8.456;2022-10-19T09:04:09;18.00;61.30
11387;DHT22;5748;53.102;8.456;2022-10-19T09:07:02;18.00;61.50
11387;DHT22;5748;53.102;8.456;2022-10-19T09:09:51;18.00;60.80
11387;DHT22;5748;53.102;8.456;2022-10-19T09:12:37;18.10;60.60
11387;DHT22;5748;53.102;8.456;2022-10-19T09:15:11;18.10;60.80
11387;DHT22;5748;53.102;8.456;2022-10-19T09:17:39;18.20;61.10
11387;DHT22;5748;53.102;8.456;2022-10-19T09:20:16;18.20;61.00
11387;DHT22;5748;53.102;8.456;2022-10-19T09:22:47;18.30;60.90
11387;DHT22;5748;53.102;8.456;2022-10-19T09:25:19;18.40;61.30
11387;DHT22;5748;53.102;8.456;2022-10-19T09:27:48;18.40;61.00
11387;DHT22;5748;53.102;8.456;2022-10-19T09:30:21;18.40;61.00
11387;DHT22;5748;53.102;8.456;2022-10-19T09:32:57;18.50;61.10
11387;DHT22;5748;53.102;8.456;2022-10-19T09:35:28;18.50;61.00
11387;DHT22;5748;53.102;8.456;2022-10-19T09:38:00;18.70;61.00
11387;DHT22;5748;53.102;8.456;2022-10-19T09:40:29;18.80;61.00
11387;DHT22;5748;53.102;8.456;2022-10-19T09:42:56;18.80;61.20
11387;DHT22;5748;53.102;8.456;2022-10-19T09:45:33;18.90;61.40
11387;DHT22;5748;53.102;8.456;2022-10-19T09:48:13;19.00;61.30
11387;DHT22;5748;53.102;8.456;2022-10-19T09:50:43;19.10;60.70
11387;DHT22;5748;53.102;8.456;2022-10-19T09:53:18;19.30;61.80
11387;DHT22;5748;53.102;8.456;2022-10-19T09:55:52;19.40;61.40
11387;DHT22;5748;53.102;8.456;2022-10-19T09:58:25;19.60;61.30
11387;DHT22;5748;53.102;8.456;2022-10-19T10:00:54;19.70;61.50
11387;DHT22;5748;53.102;8.456;2022-10-19T10:03:29;19.90;62.10
11387;DHT22;5748;53.102;8.456;2022-10-19T10:05:58;20.10;62.00
11387;DHT22;5748;53.102;8.456;2022-10-19T10:08:30;20.30;63.40
11387;DHT22;5748;53.102;8.456;2022-10-19T10:11:06;20.60;63.60
11387;DHT22;5748;53.102;8.456;2022-10-19T10:13:37;21.00;63.00
11387;DHT22;5748;53.102;8.456;2022-10-19T10:16:07;21.30;63.20
11387;DHT22;5748;53.102;8.456;2022-10-19T10:18:50;21.50;62.20
11387;DHT22;5748;53.102;8.456;2022-10-19T10:21:21;21.70;59.40
11387;DHT22;5748;53.102;8.456;2022-10-19T10:24:21;21.90;60.30
11387;DHT22;5748;53.102;8.456;2022-10-19T10:26:53;22.00;58.20
11387;DHT22;5748;53.102;8.456;2022-10-19T10:29:23;22.10;59.40
11387;DHT22;5748;53.102;8.456;2022-10-19T10:31:54;22.10;59.50
11387;DHT22;5748;53.102;8.456;2022-10-19T10:34:32;22.10;59.10
11387;DHT22;5748;53.102;8.456;2022-10-19T10:37:02;22.10;58.30
11387;DHT22;5748;53.102;8.456;2022-10-19T10:39:39;22.10;58.50
11387;DHT22;5748;53.102;8.456;2022-10-19T10:42:10;22.10;57.60
11387;DHT22;5748;53.102;8.456;2022-10-19T10:44:44;22.00;57.70
11387;DHT22;5748;53.102;8.456;2022-10-19T10:47:16;22.00;57.80
11387;DHT22;5748;53.102;8.456;2022-10-19T10:49:52;22.00;58.40
11387;DHT22;5748;53.102;8.456;2022-10-19T10:52:20;22.10;58.40
11387;DHT22;5748;53.102;8.456;2022-10-19T10:54:58;22.30;60.20
11387;DHT22;5748;53.102;8.456;2022-10-19T10:57:31;22.60;59.70
11387;DHT22;5748;53.102;8.456;2022-10-19T11:00:04;23.10;61.00
11387;DHT22;5748;53.102;8.456;2022-10-19T11:02:40;23.50;61.50
11387;DHT22;5748;53.102;8.456;2022-10-19T11:05:18;24.00;61.40
11387;DHT22;5748;53.102;8.456;2022-10-19T11:07:49;24.60;60.80
11387;DHT22;5748;53.102;8.456;2022-10-19T11:10:26;25.10;61.30
11387;DHT22;5748;53.102;8.456;2022-10-19T11:13:04;25.50;59.60
11387;DHT22;5748;53.102;8.456;2022-10-19T11:15:41;26.00;59.00
11387;DHT22;5748;53.102;8.456;2022-10-19T11:18:16;26.40;60.00
11387;DHT22;5748;53.102;8.456;2022-10-19T11:20:54;26.80;59.50
11387;DHT22;5748;53.102;8.456;2022-10-19T11:23:40;27.10;58.40
11387;DHT22;5748;53.102;8.456;2022-10-19T11:26:24;27.30;55.70
11387;DHT22;5748;53.102;8.456;2022-10-19T11:29:06;27.40;54.90
11387;DHT22;5748;53.102;8.456;2022-10-19T11:31:45;27.30;54.40
11387;DHT22;5748;53.102;8.456;2022-10-19T11:37:20;27.30;55.90
11387;DHT22;5748;53.102;8.456;2022-10-19T11:40:02;27.60;56.40
11387;DHT22;5748;53.102;8.456;2022-10-19T11:42:46;27.90;57.50
11387;DHT22;5748;53.102;8.456;2022-10-19T11:45:27;28.40;57.30
11387;DHT22;5748;53.102;8.456;2022-10-19T11:48:23;28.90;58.30
11387;DHT22;5748;53.102;8.456;2022-10-19T11:51:03;29.50;56.50
11387;DHT22;5748;53.102;8.456;2022-10-19T11:53:41;30.00;57.20
11387;DHT22;5748;53.102;8.456;2022-10-19T11:56:18;30.50;55.00
11387;DHT22;5748;53.102;8.456;2022-10-19T11:58:57;30.80;55.60
11387;DHT22;5748;53.102;8.456;2022-10-19T12:01:42;31.20;54.40
11387;DHT22;5748;53.102;8.456;2022-10-19T12:04:28;31.40;53.00
11387;DHT22;5748;53.102;8.456;2022-10-19T12:07:10;31.60;52.00
11387;DHT22;5748;53.102;8.456;2022-10-19T12:09:51;31.70;50.50
11387;DHT22;5748;53.102;8.456;2022-10-19T12:12:28;31.60;50.50
11387;DHT22;5748;53.102;8.456;2022-10-19T12:15:10;31.30;49.60
11387;DHT22;5748;53.102;8.456;2022-10-19T12:17:46;30.90;48.50
11387;DHT22;5748;53.102;8.456;2022-10-19T12:20:21;30.40;48.30
11387;DHT22;5748;53.102;8.456;2022-10-19T12:22:52;29.90;47.60
11387;DHT22;5748;53.102;8.456;2022-10-19T12:25:21;29.30;48.30
11387;DHT22;5748;53.102;8.456;2022-10-19T12:27:49;28.80;48.20
11387;DHT22;5748;53.102;8.456;2022-10-19T12:30:18;28.30;48.40
11387;DHT22;5748;53.102;8.456;2022-10-19T12:32:57;27.80;48.50
11387;DHT22;5748;53.102;8.456;2022-10-19T12:38:32;27.00;48.60
11387;DHT22;5748;53.102;8.456;2022-10-19T12:41:12;26.70;49.70
11387;DHT22;5748;53.102;8.456;2022-10-19T12:43:55;26.40;49.70
11387;DHT22;5748;53.102;8.456;2022-10-19T12:46:34;26.20;49.40
11387;DHT22;5748;53.102;8.456;2022-10-19T12:49:34;26.10;50.30
11387;DHT22;5748;53.102;8.456;2022-10-19T12:52:03;25.90;49.60
11387;DHT22;5748;53.102;8.456;2022-10-19T12:54:35;25.80;50.90
11387;DHT22;5748;53.102;8.456;2022-10-19T12:57:22;25.70;51.00
11387;DHT22;5748;53.102;8.456;2022-10-19T13:00:02;25.60;49.40
11387;DHT22;5748;53.102;8.456;2022-10-19T13:02:34;25.50;49.60
11387;DHT22;5748;53.102;8.456;2022-10-19T13:05:03;25.30;49.80
11387;DHT22;5748;53.102;8.456;2022-10-19T13:07:33;25.10;49.90
11387;DHT22;5748;53.102;8.456;2022-10-19T13:10:03;24.90;49.70
11387;DHT22;5748;53.102;8.456;2022-10-19T13:12:44;24.70;49.40
11387;DHT22;5748;53.102;8.456;2022-10-19T13:25:18;23.70;49.40
11387;DHT22;5748;53.102;8.456;2022-10-19T13:28:01;23.50;48.70
11387;DHT22;5748;53.102;8.456;2022-10-19T13:31:02;23.30;49.60
11387;DHT22;5748;53.102;8.456;2022-10-19T13:33:50;23.00;48.60
11387;DHT22;5748;53.102;8.456;2022-10-19T13:36:20;22.80;48.80
11387;DHT22;5748;53.102;8.456;2022-10-19T13:39:02;22.30;49.30
11387;DHT22;5748;53.102;8.456;2022-10-19T13:41:51;22.50;49.20
11387;DHT22;5748;53.102;8.456;2022-10-19T13:44:28;22.40;49.50
11387;DHT22;5748;53.102;8.456;2022-10-19T13:47:23;22.30;50.00
11387;DHT22;5748;53.102;8.456;2022-10-19T13:50:31;22.20;49.70
11387;DHT22;5748;53.102;8.456;2022-10-19T13:53:24;22.10;50.00
11387;DHT22;5748;53.102;8.456;2022-10-19T13:56:15;22.00;48.70
11387;DHT22;5748;53.102;8.456;2022-10-19T13:59:28;21.90;49.20
11387;DHT22;5748;53.102;8.456;2022-10-19T14:02:31;21.80;49.80
11387;DHT22;5748;53.102;8.456;2022-10-19T14:05:28;21.60;49.20
11387;DHT22;5748;53.102;8.456;2022-10-19T14:08:07;21.50;49.50
11387;DHT22;5748;53.102;8.456;2022-10-19T14:10:45;21.30;49.90
11387;DHT22;5748;53.102;8.456;2022-10-19T14:13:14;21.20;50.10
11387;DHT22;5748;53.102;8.456;2022-10-19T14:15:51;21.20;50.50
11387;DHT22;5748;53.102;8.456;2022-10-19T14:18:22;21.10;50.30
11387;DHT22;5748;53.102;8.456;2022-10-19T14:20:56;21.10;50.50
11387;DHT22;5748;53.102;8.456;2022-10-19T14:23:25;21.10;50.30
11387;DHT22;5748;53.102;8.456;2022-10-19T14:25:56;21.00;50.60
11387;DHT22;5748;53.102;8.456;2022-10-19T14:28:25;21.00;50.60
11387;DHT22;5748;53.102;8.456;2022-10-19T14:30:57;21.00;50.40
11387;DHT22;5748;53.102;8.456;2022-10-19T14:33:25;21.00;50.40
11387;DHT22;5748;53.102;8.456;2022-10-19T14:35:53;20.80;50.50
11387;DHT22;5748;53.102;8.456;2022-10-19T14:38:25;20.80;50.40
11387;DHT22;5748;53.102;8.456;2022-10-19T14:40:56;20.80;50.10
11387;DHT22;5748;53.102;8.456;2022-10-19T14:43:24;20.70;50.10
11387;DHT22;5748;53.102;8.456;2022-10-19T14:46:09;20.60;50.20
11387;DHT22;5748;53.102;8.456;2022-10-19T14:48:38;20.50;49.90
11387;DHT22;5748;53.102;8.456;2022-10-19T14:51:19;20.40;50.10
11387;DHT22;5748;53.102;8.456;2022-10-19T14:53:56;20.40;50.30
11387;DHT22;5748;53.102;8.456;2022-10-19T14:56:31;20.20;50.20
11387;DHT22;5748;53.102;8.456;2022-10-19T14:59:02;20.20;50.30
11387;DHT22;5748;53.102;8.456;2022-10-19T15:01:33;20.10;50.30
11387;DHT22;5748;53.102;8.456;2022-10-19T15:04:00;20.00;50.10
11387;DHT22;5748;53.102;8.456;2022-10-19T15:06:30;19.90;50.10
11387;DHT22;5748;53.102;8.456;2022-10-19T15:09:01;19.90;50.30
11387;DHT22;5748;53.102;8.456;2022-10-19T15:11:32;19.70;50.20
11387;DHT22;5748;53.102;8.456;2022-10-19T15:14:06;19.70;50.30
11387;DHT22;5748;53.102;8.456;2022-10-19T15:16:51;19.60;50.30
11387;DHT22;5748;53.102;8.456;2022-10-19T15:19:25;19.50;50.40
11387;DHT22;5748;53.102;8.456;2022-10-19T15:22:15;19.40;50.40
11387;DHT22;5748;53.102;8.456;2022-10-19T15:24:59;19.30;50.40
11387;DHT22;5748;53.102;8.456;2022-10-19T15:27:32;19.20;50.40
11387;DHT22;5748;53.102;8.456;2022-10-19T15:30:04;19.20;50.60
11387;DHT22;5748;53.102;8.456;2022-10-19T15:32:34;19.00;50.50
11387;DHT22;5748;53.102;8.456;2022-10-19T15:35:11;19.00;50.60
11387;DHT22;5748;53.102;8.456;2022-10-19T15:38:00;18.90;51.10
11387;DHT22;5748;53.102;8.456;2022-10-19T15:40:31;18.90;50.80
11387;DHT22;5748;53.102;8.456;2022-10-19T15:42:59;18.80;50.70
11387;DHT22;5748;53.102;8.456;2022-10-19T15:45:32;18.80;50.70
11387;DHT22;5748;53.102;8.456;2022-10-19T15:48:27;18.70;50.80
11387;DHT22;5748;53.102;8.456;2022-10-19T15:50:56;18.60;51.10
11387;DHT22;5748;53.102;8.456;2022-10-19T15:53:24;18.50;50.80
11387;DHT22;5748;53.102;8.456;2022-10-19T15:55:51;18.40;50.80
11387;DHT22;5748;53.102;8.456;2022-10-19T15:58:18;18.40;50.80
11387;DHT22;5748;53.102;8.456;2022-10-19T16:00:46;18.30;50.80
11387;DHT22;5748;53.102;8.456;2022-10-19T16:03:13;18.20;50.80
11387;DHT22;5748;53.102;8.456;2022-10-19T16:05:42;18.10;50.80
11387;DHT22;5748;53.102;8.456;2022-10-19T16:08:10;18.00;50.90
11387;DHT22;5748;53.102;8.456;2022-10-19T16:10:37;17.90;50.90
11387;DHT22;5748;53.102;8.456;2022-10-19T16:13:04;17.90;51.00
11387;DHT22;5748;53.102;8.456;2022-10-19T16:15:31;17.80;51.00
11387;DHT22;5748;53.102;8.456;2022-10-19T16:18:00;17.60;50.90
11387;DHT22;5748;53.102;8.456;2022-10-19T16:20:28;17.50;50.90
11387;DHT22;5748;53.102;8.456;2022-10-19T16:22:57;17.50;51.10
11387;DHT22;5748;53.102;8.456;2022-10-19T16:25:24;17.40;51.10
11387;DHT22;5748;53.102;8.456;2022-10-19T16:27:51;17.20;51.00
11387;DHT22;5748;53.102;8.456;2022-10-19T16:30:18;17.20;51.00
11387;DHT22;5748;53.102;8.456;2022-10-19T16:32:46;17.10;50.90
11387;DHT22;5748;53.102;8.456;2022-10-19T16:35:14;17.10;51.10
11387;DHT22;5748;53.102;8.456;2022-10-19T16:37:48;16.90;51.10
11387;DHT22;5748;53.102;8.456;2022-10-19T16:40:16;16.80;51.30
11387;DHT22;5748;53.102;8.456;2022-10-19T16:42:43;16.70;51.20
11387;DHT22;5748;53.102;8.456;2022-10-19T16:45:10;16.60;51.10